createdAt,value
2019-02-08T00:00:44.811Z,2.30
2019-02-08T00:03:12.149Z,2.30
2019-02-08T00:05:39.487Z,2.30
2019-02-08T00:08:06.746Z,2.20
2019-02-08T00:10:33.995Z,2.20
2019-02-08T00:13:01.423Z,2.20
2019-02-08T00:15:28.895Z,2.20
2019-02-08T00:17:56.278Z,2.20
2019-02-08T00:20:23.645Z,2.20
2019-02-08T00:22:50.807Z,2.20
2019-02-08T00:25:18.215Z,2.10
2019-02-08T00:27:45.573Z,2.10
2019-02-08T00:30:16.099Z,2.10
2019-02-08T00:32:43.433Z,2.10
2019-02-08T00:35:10.702Z,2.10
2019-02-08T00:37:38.013Z,2.10
2019-02-08T00:40:07.566Z,2.10
2019-02-08T00:42:34.794Z,2.10
2019-02-08T00:45:02.046Z,2.00
2019-02-08T00:47:29.643Z,2.00
2019-02-08T00:49:56.780Z,2.00
2019-02-08T00:52:24.030Z,2.00
2019-02-08T00:54:51.272Z,2.00
2019-02-08T00:57:18.574Z,2.10
2019-02-08T00:59:45.944Z,2.00
2019-02-08T01:02:13.206Z,2.00
2019-02-08T01:04:40.511Z,1.90
2019-02-08T01:07:08.552Z,1.90
2019-02-08T01:09:35.822Z,1.80
2019-02-08T01:12:03.299Z,1.80
2019-02-08T01:14:30.657Z,1.80
2019-02-08T01:16:57.809Z,1.70
2019-02-08T01:19:25.077Z,1.70
2019-02-08T01:21:52.369Z,1.70
2019-02-08T01:24:19.777Z,1.80
2019-02-08T01:26:47.073Z,1.80
2019-02-08T01:29:14.207Z,1.80
2019-02-08T01:31:41.365Z,1.80
2019-02-08T01:34:08.632Z,1.70
2019-02-08T01:36:35.959Z,1.80
2019-02-08T01:39:06.205Z,1.80
2019-02-08T01:41:33.351Z,1.80
2019-02-08T01:44:00.666Z,1.80
2019-02-08T01:46:27.807Z,1.80
2019-02-08T01:48:55.063Z,1.90
2019-02-08T01:51:22.331Z,1.90
2019-02-08T01:53:49.636Z,1.90
2019-02-08T01:56:16.990Z,1.90
2019-02-08T01:58:44.142Z,1.90
2019-02-08T02:01:11.400Z,1.90
2019-02-08T02:03:38.661Z,1.90
2019-02-08T02:06:05.808Z,1.90
2019-02-08T02:08:32.980Z,1.90
2019-02-08T02:11:00.242Z,1.90
2019-02-08T02:13:27.396Z,1.80
2019-02-08T02:15:54.578Z,1.80
2019-02-08T02:18:21.838Z,1.80
2019-02-08T02:20:49.108Z,1.70
2019-02-08T02:23:16.604Z,1.70
2019-02-08T02:25:43.835Z,1.70
2019-02-08T02:28:11.153Z,1.60
2019-02-08T02:30:38.494Z,1.60
2019-02-08T02:33:07.320Z,1.50
2019-02-08T02:35:34.596Z,1.50
2019-02-08T02:38:02.138Z,1.40
2019-02-08T02:40:29.412Z,1.40
2019-02-08T02:42:56.655Z,1.40
2019-02-08T02:45:28.789Z,1.40
2019-02-08T02:47:56.039Z,1.30
2019-02-08T02:50:23.195Z,1.30
2019-02-08T02:52:50.424Z,1.30
2019-02-08T02:55:18.801Z,1.20
2019-02-08T02:57:45.966Z,1.10
2019-02-08T03:00:19.201Z,1.10
2019-02-08T03:02:46.447Z,1.00
2019-02-08T03:05:13.877Z,1.00
2019-02-08T03:07:41.113Z,1.10
2019-02-08T03:10:09.906Z,1.10
2019-02-08T03:12:37.174Z,1.10
2019-02-08T03:15:05.284Z,1.10
2019-02-08T03:17:32.524Z,1.10
2019-02-08T03:19:59.794Z,1.10
2019-02-08T03:22:26.939Z,1.10
2019-02-08T03:24:54.214Z,1.20
2019-02-08T03:27:21.504Z,1.20
2019-02-08T03:29:48.746Z,1.20
2019-02-08T03:32:15.993Z,1.20
2019-02-08T03:34:43.895Z,1.30
2019-02-08T03:37:11.038Z,1.30
2019-02-08T03:39:38.298Z,1.40
2019-02-08T03:42:05.574Z,1.40
2019-02-08T03:44:32.852Z,1.50
2019-02-08T03:47:00.110Z,1.50
2019-02-08T03:49:27.375Z,1.60
2019-02-08T03:51:54.615Z,1.60
2019-02-08T03:54:21.740Z,1.70
2019-02-08T03:56:49.017Z,1.70
2019-02-08T03:59:16.261Z,1.70
2019-02-08T04:01:43.517Z,1.70
2019-02-08T04:04:12.941Z,1.70
2019-02-08T04:06:40.293Z,1.60
2019-02-08T04:09:07.747Z,1.60
2019-02-08T04:11:34.897Z,1.70
2019-02-08T04:14:02.034Z,1.60
2019-02-08T04:16:29.290Z,1.60
2019-02-08T04:18:56.579Z,1.60
2019-02-08T04:21:23.793Z,1.60
2019-02-08T04:23:51.066Z,1.60
2019-02-08T04:26:18.230Z,1.60
2019-02-08T04:28:45.583Z,1.60
2019-02-08T04:31:12.740Z,1.60
2019-02-08T04:33:39.892Z,1.60
2019-02-08T04:36:07.112Z,1.70
2019-02-08T04:38:34.288Z,1.70
2019-02-08T04:41:01.548Z,1.70
2019-02-08T04:43:29.064Z,1.70
2019-02-08T04:45:56.196Z,1.70
2019-02-08T04:48:23.472Z,1.60
2019-02-08T04:50:50.730Z,1.60
2019-02-08T04:53:17.998Z,1.60
2019-02-08T04:55:45.127Z,1.50
2019-02-08T04:58:12.296Z,1.50
2019-02-08T05:00:39.547Z,1.40
2019-02-08T05:03:06.809Z,1.40
2019-02-08T05:05:34.038Z,1.30
2019-02-08T05:08:01.286Z,1.30
2019-02-08T05:10:29.629Z,1.20
2019-02-08T05:12:56.984Z,1.20
2019-02-08T05:15:24.304Z,1.20
2019-02-08T05:17:51.526Z,1.20
2019-02-08T05:20:20.295Z,1.20
2019-02-08T05:22:47.457Z,1.20
2019-02-08T05:25:14.964Z,1.20
2019-02-08T05:27:42.329Z,1.20
2019-02-08T05:30:15.562Z,1.20
2019-02-08T05:32:42.871Z,1.20
2019-02-08T05:35:10.215Z,1.20
2019-02-08T05:37:38.404Z,1.10
2019-02-08T05:40:06.715Z,1.00
2019-02-08T05:42:33.959Z,1.00
2019-02-08T05:45:01.189Z,0.90
2019-02-08T05:47:28.464Z,0.80
2019-02-08T05:49:56.333Z,0.80
2019-02-08T05:52:23.598Z,0.70
2019-02-08T05:54:54.411Z,0.60
2019-02-08T05:57:19.981Z,0.60
2019-02-08T05:59:47.217Z,0.50
2019-02-08T06:02:14.562Z,0.50
2019-02-08T06:04:43.524Z,0.40
2019-02-08T06:07:10.781Z,0.40
2019-02-08T06:09:38.088Z,0.40
2019-02-08T06:12:05.416Z,0.30
2019-02-08T06:14:32.687Z,0.40
2019-02-08T06:16:59.956Z,0.60
2019-02-08T06:19:27.114Z,0.50
2019-02-08T06:21:54.392Z,0.40
2019-02-08T06:24:22.387Z,0.30
2019-02-08T06:26:49.629Z,0.30
2019-02-08T06:29:16.925Z,0.30
2019-02-08T06:31:44.107Z,0.20
2019-02-08T06:34:11.357Z,0.20
2019-02-08T06:36:38.629Z,0.20
2019-02-08T06:39:07.934Z,0.20
2019-02-08T06:41:35.185Z,0.20
2019-02-08T06:44:02.462Z,0.20
2019-02-08T06:46:29.798Z,0.20
2019-02-08T06:48:58.013Z,0.20
2019-02-08T06:51:25.227Z,0.20
2019-02-08T06:53:52.509Z,0.20
2019-02-08T06:56:37.369Z,0.20
2019-02-08T06:59:32.871Z,0.30
2019-02-08T07:02:18.037Z,0.30
2019-02-08T07:04:52.199Z,0.30
2019-02-08T07:07:47.850Z,0.30
2019-02-08T07:10:27.863Z,0.40
2019-02-08T07:13:03.363Z,0.40
2019-02-08T07:15:46.495Z,0.50
2019-02-08T07:18:19.368Z,0.50
2019-02-08T07:21:21.102Z,0.60
2019-02-08T07:23:56.036Z,0.70
2019-02-08T07:26:41.590Z,0.80
2019-02-08T07:29:34.418Z,0.90
2019-02-08T07:32:08.070Z,1.00
2019-02-08T07:34:57.664Z,1.20
2019-02-08T07:37:46.996Z,1.30
2019-02-08T07:40:33.135Z,1.30
2019-02-08T07:43:24.673Z,1.60
2019-02-08T07:46:11.606Z,1.90
2019-02-08T07:48:57.816Z,2.00
2019-02-08T07:51:34.375Z,1.80
2019-02-08T07:54:16.627Z,1.90
2019-02-08T07:56:52.109Z,2.00
2019-02-08T07:59:29.349Z,2.10
2019-02-08T08:02:05.907Z,2.20
2019-02-08T08:04:41.296Z,2.70
2019-02-08T08:07:18.734Z,2.90
2019-02-08T08:10:17.453Z,3.00
2019-02-08T08:13:16.782Z,3.20
2019-02-08T08:16:05.287Z,3.50
2019-02-08T08:18:47.041Z,3.70
2019-02-08T08:21:39.809Z,4.00
2019-02-08T08:24:31.378Z,4.40
2019-02-08T08:27:07.392Z,5.30
2019-02-08T08:29:43.901Z,6.60
2019-02-08T08:32:17.826Z,7.50
2019-02-08T08:35:10.046Z,7.70
2019-02-08T08:38:17.469Z,7.40
2019-02-08T08:41:13.448Z,6.90
2019-02-08T08:44:12.524Z,6.50
2019-02-08T08:47:33.738Z,6.70
2019-02-08T08:50:28.856Z,7.20
2019-02-08T08:53:33.028Z,6.60
2019-02-08T08:56:48.840Z,5.80
2019-02-08T08:59:44.210Z,5.70
2019-02-08T09:02:35.438Z,5.90
2019-02-08T09:05:27.177Z,5.80
2019-02-08T09:08:21.087Z,5.80
2019-02-08T09:11:23.443Z,6.10
2019-02-08T09:14:28.352Z,6.80
2019-02-08T09:17:35.817Z,7.90
2019-02-08T09:20:43.288Z,7.40
2019-02-08T09:23:53.027Z,6.90
2019-02-08T09:26:35.893Z,7.20
2019-02-08T09:29:49.623Z,6.80
2019-02-08T09:32:45.210Z,6.50
2019-02-08T09:35:49.993Z,6.50
2019-02-08T09:38:51.979Z,6.50
2019-02-08T09:41:58.002Z,6.30
2019-02-08T09:45:09.186Z,6.30
2019-02-08T09:48:30.601Z,6.40
2019-02-08T09:51:47.160Z,6.20
2019-02-08T09:54:35.725Z,6.50
2019-02-08T09:57:18.974Z,7.20
2019-02-08T10:00:50.076Z,7.40
2019-02-08T10:03:46.220Z,7.30
2019-02-08T10:06:54.003Z,7.20
2019-02-08T10:10:02.816Z,7.20
2019-02-08T10:13:30.159Z,7.30
2019-02-08T10:16:46.951Z,7.40
2019-02-08T10:20:29.109Z,7.90
2019-02-08T10:23:31.346Z,8.20
2019-02-08T10:27:01.321Z,8.80
2019-02-08T10:30:06.872Z,9.60
2019-02-08T10:33:25.034Z,9.70
2019-02-08T10:36:36.709Z,9.20
2019-02-08T10:39:34.402Z,8.90
2019-02-08T10:42:51.469Z,9.40
2019-02-08T10:46:05.355Z,10.40
2019-02-08T10:49:12.911Z,12.60
2019-02-08T10:52:28.101Z,14.20
2019-02-08T10:55:40.030Z,15.30
2019-02-08T10:58:43.574Z,16.40
2019-02-08T11:01:47.297Z,16.90
2019-02-08T11:04:57.138Z,17.10
2019-02-08T11:08:01.925Z,17.20
2019-02-08T11:11:09.392Z,17.30
2019-02-08T11:14:36.431Z,17.80
2019-02-08T11:17:50.319Z,17.40
2019-02-08T11:20:17.586Z,17.50
2019-02-08T11:22:44.966Z,17.60
2019-02-08T11:25:12.396Z,17.30
2019-02-08T11:27:39.577Z,17.20
2019-02-08T11:30:09.852Z,17.40
2019-02-08T11:32:43.199Z,17.30
2019-02-08T11:35:09.129Z,17.00
2019-02-08T11:37:36.384Z,16.70
2019-02-08T11:40:05.902Z,16.10
2019-02-08T11:42:33.134Z,15.80
2019-02-08T11:45:00.390Z,15.90
2019-02-08T11:47:27.689Z,16.20
2019-02-08T11:49:54.954Z,16.60
2019-02-08T11:52:22.231Z,16.70
2019-02-08T11:54:49.495Z,16.70
2019-02-08T11:57:16.723Z,17.00
2019-02-08T11:59:43.875Z,16.70
2019-02-08T12:02:11.125Z,16.80
2019-02-08T12:04:38.506Z,16.70
2019-02-08T12:07:05.767Z,17.00
2019-02-08T12:09:33.024Z,16.90
2019-02-08T12:12:00.283Z,17.20
2019-02-08T12:14:27.568Z,17.20
2019-02-08T12:16:54.714Z,17.30
2019-02-08T12:19:21.947Z,16.40
2019-02-08T12:21:49.217Z,16.10
2019-02-08T12:24:16.352Z,15.70
2019-02-08T12:26:43.514Z,15.00
2019-02-08T12:29:10.802Z,15.40
2019-02-08T12:31:38.062Z,16.00
2019-02-08T12:34:05.691Z,16.20
2019-02-08T12:36:32.969Z,16.00
2019-02-08T12:39:00.550Z,15.90
2019-02-08T12:41:27.810Z,15.20
2019-02-08T12:43:54.968Z,14.80
2019-02-08T12:46:22.207Z,15.00
2019-02-08T12:48:49.368Z,15.20
2019-02-08T12:51:16.561Z,15.20
2019-02-08T12:53:43.791Z,15.00
2019-02-08T12:56:10.965Z,15.60
2019-02-08T12:58:38.241Z,15.60
2019-02-08T13:01:05.421Z,16.00
2019-02-08T13:03:32.578Z,15.00
2019-02-08T13:05:59.866Z,14.30
2019-02-08T13:08:27.145Z,14.70
2019-02-08T13:10:54.319Z,15.00
2019-02-08T13:13:21.636Z,14.90
2019-02-08T13:15:48.799Z,15.00
2019-02-08T13:18:16.117Z,14.70
2019-02-08T13:20:43.513Z,14.70
2019-02-08T13:23:10.697Z,14.40
2019-02-08T13:25:37.944Z,14.20
2019-02-08T13:28:05.292Z,14.10
2019-02-08T13:30:32.558Z,13.70
2019-02-08T13:32:59.874Z,13.90
2019-02-08T13:35:27.624Z,14.00
2019-02-08T13:37:56.156Z,14.20
2019-02-08T13:40:23.224Z,13.40
2019-02-08T13:42:50.376Z,12.70
2019-02-08T13:45:17.894Z,11.80
2019-02-08T13:47:45.361Z,10.90
2019-02-08T13:50:15.495Z,10.10
2019-02-08T13:52:42.661Z,9.80
2019-02-08T13:55:11.116Z,9.50
2019-02-08T13:57:38.349Z,9.30
2019-02-08T14:00:08.925Z,9.20
2019-02-08T14:02:36.209Z,9.20
2019-02-08T14:05:04.980Z,9.10
2019-02-08T14:07:32.303Z,9.00
2019-02-08T14:09:59.581Z,8.80
2019-02-08T14:12:26.831Z,8.80
2019-02-08T14:14:54.082Z,8.70
2019-02-08T14:17:21.247Z,8.60
2019-02-08T14:19:48.397Z,8.50
2019-02-08T14:22:15.538Z,8.50
2019-02-08T14:24:43.021Z,8.40
2019-02-08T14:27:10.323Z,8.30
2019-02-08T14:29:37.584Z,8.20
2019-02-08T14:32:04.855Z,8.10
2019-02-08T14:34:32.502Z,8.00
2019-02-08T14:36:59.871Z,7.90
2019-02-08T14:39:27.467Z,7.90
2019-02-08T14:41:54.817Z,7.80
2019-02-08T14:44:22.098Z,7.90
2019-02-08T14:46:49.357Z,7.90
2019-02-08T14:49:16.625Z,7.90
2019-02-08T14:51:44.156Z,7.90
2019-02-08T14:54:11.530Z,7.90
2019-02-08T14:56:40.101Z,7.90
2019-02-08T14:59:07.429Z,7.80
2019-02-08T15:01:34.720Z,7.70
2019-02-08T15:04:02.019Z,7.60
2019-02-08T15:06:29.380Z,7.60
2019-02-08T15:08:56.658Z,7.60
2019-02-08T15:11:23.963Z,7.50
2019-02-08T15:13:51.220Z,7.40
2019-02-08T15:16:19.405Z,7.30
2019-02-08T15:18:46.766Z,7.20
2019-02-08T15:21:14.006Z,7.00
2019-02-08T15:23:41.323Z,6.90
2019-02-08T15:26:08.595Z,6.80
2019-02-08T15:28:35.872Z,6.60
2019-02-08T15:31:03.244Z,6.60
2019-02-08T15:33:30.601Z,6.40
2019-02-08T15:35:57.777Z,6.40
2019-02-08T15:38:25.051Z,6.20
2019-02-08T15:40:54.026Z,6.10
2019-02-08T15:43:22.210Z,6.00
2019-02-08T15:45:52.396Z,5.90
2019-02-08T15:48:19.733Z,5.80
2019-02-08T15:50:47.131Z,5.70
2019-02-08T15:53:15.072Z,5.70
2019-02-08T15:55:44.022Z,5.60
2019-02-08T15:58:11.236Z,5.50
2019-02-08T16:00:38.383Z,5.40
2019-02-08T16:03:07.620Z,5.30
2019-02-08T16:05:35.015Z,5.20
2019-02-08T16:08:02.296Z,5.00
2019-02-08T16:10:29.558Z,4.90
2019-02-08T16:12:56.945Z,4.80
2019-02-08T16:15:25.570Z,4.70
2019-02-08T16:17:52.846Z,4.50
2019-02-08T16:20:22.432Z,4.40
2019-02-08T16:22:50.462Z,4.30
2019-02-08T16:25:20.625Z,4.20
2019-02-08T16:27:47.908Z,4.10
2019-02-08T16:30:17.535Z,4.10
2019-02-08T16:32:44.880Z,4.00
2019-02-08T16:35:12.567Z,4.00
2019-02-08T16:37:39.794Z,3.90
2019-02-08T16:40:09.744Z,3.90
2019-02-08T16:42:37.096Z,3.80
2019-02-08T16:45:06.349Z,3.70
2019-02-08T16:47:33.653Z,3.70
2019-02-08T16:50:00.849Z,3.60
2019-02-08T16:52:30.134Z,3.50
2019-02-08T16:54:57.370Z,3.40
2019-02-08T16:57:24.539Z,3.30
2019-02-08T16:59:51.760Z,3.30
2019-02-08T17:02:19.015Z,3.20
2019-02-08T17:04:46.406Z,3.10
2019-02-08T17:07:13.571Z,3.10
2019-02-08T17:09:40.767Z,3.10
2019-02-08T17:12:08.089Z,3.10
2019-02-08T17:14:35.331Z,3.00
2019-02-08T17:17:02.597Z,3.10
2019-02-08T17:19:29.821Z,3.00
2019-02-08T17:21:57.112Z,2.90
2019-02-08T17:24:24.276Z,2.70
2019-02-08T17:26:51.555Z,2.70
2019-02-08T17:29:18.766Z,2.50
2019-02-08T17:31:46.156Z,2.50
2019-02-08T17:34:13.333Z,2.40
2019-02-08T17:36:40.623Z,2.30
2019-02-08T17:39:08.316Z,2.30
2019-02-08T17:41:37.566Z,2.20
2019-02-08T17:44:04.871Z,2.10
2019-02-08T17:46:32.262Z,2.00
2019-02-08T17:48:59.573Z,1.90
2019-02-08T17:51:26.858Z,1.80
2019-02-08T17:53:54.107Z,1.70
2019-02-08T17:56:21.441Z,1.70
2019-02-08T17:58:48.675Z,1.70
2019-02-08T18:01:15.970Z,1.70
2019-02-08T18:03:43.229Z,1.70
2019-02-08T18:06:10.377Z,1.60
2019-02-08T18:08:37.686Z,1.60
2019-02-08T18:11:04.965Z,1.50
2019-02-08T18:13:32.277Z,1.60
2019-02-08T18:15:59.575Z,1.50
2019-02-08T18:18:26.851Z,1.50
2019-02-08T18:20:56.890Z,1.50
2019-02-08T18:23:24.326Z,1.40
2019-02-08T18:25:51.722Z,1.40
2019-02-08T18:28:19.061Z,1.30
2019-02-08T18:30:46.235Z,1.30
2019-02-08T18:33:13.473Z,1.20
2019-02-08T18:35:40.761Z,1.10
2019-02-08T18:38:08.062Z,1.00
2019-02-08T18:40:35.366Z,0.90
2019-02-08T18:43:02.738Z,0.90
2019-02-08T18:45:30.108Z,0.90
2019-02-08T18:47:57.342Z,0.90
2019-02-08T18:50:35.579Z,0.80
2019-02-08T18:53:03.122Z,0.90
2019-02-08T18:55:30.446Z,0.90
2019-02-08T18:57:57.713Z,0.90
2019-02-08T19:00:27.470Z,0.90
2019-02-08T19:02:54.721Z,0.90
2019-02-08T19:05:21.945Z,0.80
2019-02-08T19:07:50.353Z,0.80
2019-02-08T19:10:18.123Z,0.80
2019-02-08T19:12:45.313Z,0.70
2019-02-08T19:15:14.946Z,0.60
2019-02-08T19:17:42.221Z,0.50
2019-02-08T19:20:10.749Z,0.60
2019-02-08T19:22:38.099Z,0.50
2019-02-08T19:25:09.036Z,0.50
2019-02-08T19:27:36.291Z,0.50
2019-02-08T19:30:06.049Z,0.60
2019-02-08T19:32:33.499Z,0.60
2019-02-08T19:35:01.179Z,0.60
2019-02-08T19:37:28.581Z,0.60
2019-02-08T19:39:55.847Z,0.60
2019-02-08T19:42:22.976Z,0.60
2019-02-08T19:44:50.088Z,0.60
2019-02-08T19:47:17.470Z,0.60
2019-02-08T19:49:44.773Z,0.60
2019-02-08T19:52:12.066Z,0.70
2019-02-08T19:54:39.342Z,0.80
2019-02-08T19:57:06.720Z,0.80
2019-02-08T19:59:34.140Z,0.90
2019-02-08T20:02:01.386Z,0.90
2019-02-08T20:04:28.662Z,1.00
2019-02-08T20:06:56.111Z,1.10
2019-02-08T20:09:23.573Z,1.10
2019-02-08T20:11:50.964Z,1.10
2019-02-08T20:14:18.377Z,1.10
2019-02-08T20:16:45.827Z,1.10
2019-02-08T20:19:13.087Z,1.10
2019-02-08T20:21:40.360Z,1.10
2019-02-08T20:24:07.647Z,1.10
2019-02-08T20:26:34.903Z,1.10
2019-02-08T20:29:02.277Z,1.10
2019-02-08T20:31:29.690Z,1.10
2019-02-08T20:33:57.042Z,1.00
2019-02-08T20:36:24.508Z,1.00
2019-02-08T20:38:52.029Z,1.00
2019-02-08T20:41:19.384Z,1.00
2019-02-08T20:43:46.739Z,1.00
2019-02-08T20:46:14.561Z,0.90
2019-02-08T20:48:41.824Z,0.90
2019-02-08T20:51:09.328Z,0.90
2019-02-08T20:53:36.725Z,1.00
2019-02-08T20:56:04.457Z,0.90
2019-02-08T20:58:31.985Z,0.90
2019-02-08T21:00:59.400Z,0.90
2019-02-08T21:03:26.693Z,0.80
2019-02-08T21:05:53.982Z,0.80
2019-02-08T21:08:21.470Z,0.80
2019-02-08T21:10:48.715Z,0.70
2019-02-08T21:13:16.004Z,0.70
2019-02-08T21:15:43.263Z,0.60
2019-02-08T21:18:11.317Z,0.50
2019-02-08T21:20:39.120Z,0.50
2019-02-08T21:23:07.488Z,0.50
2019-02-08T21:25:34.656Z,0.50
2019-02-08T21:28:02.021Z,0.50
2019-02-08T21:30:29.274Z,0.50
2019-02-08T21:32:56.576Z,0.50
2019-02-08T21:35:23.915Z,0.50
2019-02-08T21:37:51.360Z,0.50
2019-02-08T21:40:20.646Z,0.50
2019-02-08T21:42:47.984Z,0.50
2019-02-08T21:45:20.943Z,0.50
2019-02-08T21:47:48.205Z,0.50
2019-02-08T21:50:15.817Z,0.50
2019-02-08T21:52:43.145Z,0.50
2019-02-08T21:55:11.456Z,0.60
2019-02-08T21:57:38.750Z,0.60
2019-02-08T22:00:16.911Z,0.60
2019-02-08T22:02:44.407Z,0.60
2019-02-08T22:05:11.948Z,0.60
2019-02-08T22:07:39.233Z,0.60
2019-02-08T22:10:07.654Z,0.50
2019-02-08T22:12:34.917Z,0.50
2019-02-08T22:15:02.166Z,0.40
2019-02-08T22:17:29.408Z,0.50
2019-02-08T22:19:56.690Z,0.40
2019-02-08T22:22:23.831Z,0.40
2019-02-08T22:24:51.012Z,0.40
2019-02-08T22:27:18.348Z,0.40
2019-02-08T22:29:45.545Z,0.50
2019-02-08T22:32:12.770Z,0.50
2019-02-08T22:34:40.053Z,0.50
2019-02-08T22:37:07.546Z,0.50
2019-02-08T22:39:34.798Z,0.50
2019-02-08T22:42:01.959Z,0.50
2019-02-08T22:44:29.473Z,0.50
2019-02-08T22:46:56.699Z,0.50
2019-02-08T22:49:23.999Z,0.50
2019-02-08T22:51:51.252Z,0.50
2019-02-08T22:54:18.440Z,0.50
2019-02-08T22:56:45.566Z,0.50
2019-02-08T22:59:12.862Z,0.50
2019-02-08T23:01:44.071Z,0.50
2019-02-08T23:04:11.340Z,0.50
2019-02-08T23:06:44.441Z,0.50
2019-02-08T23:09:21.395Z,0.40
2019-02-08T23:11:48.796Z,0.40
2019-02-08T23:14:15.997Z,0.40
2019-02-08T23:16:44.279Z,0.40
2019-02-08T23:19:11.609Z,0.30
2019-02-08T23:21:38.923Z,0.30
2019-02-08T23:24:06.139Z,0.30
2019-02-08T23:26:33.449Z,0.30
2019-02-08T23:29:00.748Z,0.30
2019-02-08T23:31:28.001Z,0.30
2019-02-08T23:33:55.252Z,0.30
2019-02-08T23:36:22.579Z,0.30
2019-02-08T23:38:49.835Z,0.30
2019-02-08T23:41:17.148Z,0.40
2019-02-08T23:43:44.326Z,0.50
2019-02-08T23:46:11.626Z,0.50
2019-02-08T23:48:38.901Z,0.60
2019-02-08T23:51:06.128Z,0.60
2019-02-08T23:53:33.390Z,0.70
2019-02-08T23:56:00.774Z,0.70
2019-02-08T23:58:28.136Z,0.60
